Ostrander, Minnesota
Current Conditions -  °F | °C
As of 7:55 AM on Thursday 23 Oct 2014 (Local Time) from KFKA Reporting Station
Light Rain Light Rain  
Wind Chill: 41°   Ceiling: 2200
Heat Index: 46°   Visibility: 2mi
Dew Point: 45°   Wind: 9mph
Humidity: 95%   Direction: 180°S
Pressure: 30.03"   Gusts: NA
Location:  43.61°N, 92.43°W
Report Text: KFKA 231255Z AUTO 18008KT 2SM -RA SCT010 OVC022 08/07 A3003 RMK AO2 P0002 T00780070
Loading
Personal Weather Stations






























Interactive Weather Map
Tropical Storm Tracking
New forecast layout! Learn more

10-Day Weather Forecast

Advertisements
Track Severe Weather on mobile